Island Queen — WDE6981 — position and weather

sailwx.info

Track history (hours):
 
Tides and Currents Weather Stations Pressure Air Temp Water Temp Dewpoint Dewpoint Depression Visibility Wind Speed Wind Dir Waves Ship Positions

Island Queen

Owner: Island Queen Sightseeing Tours Inc., Miami, FL. More information available from US FCC via Universal Licensing System and Coast Guard Vessel Documentation Center.

Last reported at 2018-Jul-16 04:25 UTC. Time now 2018-Jul-16 04:37 UTC.
Position N 25°47' W 080°11'.

Type: Passenger vessel. MMSI: 367387350.

Date/timePositionNaut miles runAvg speedWind from/ knotsBaromVisibWave heightAir tempDewpointWater temp
2018-Jul-16 04:25N 25°47' W 080°11'0 0.0
2018-Jul-16 03:55N 25°47' W 080°11'0 0.0
2018-Jul-16 03:19N 25°47' W 080°11'0 0.0
2018-Jul-16 02:55N 25°47' W 080°11'0 0.0
2018-Jul-16 02:19N 25°47' W 080°11'0 0.1
2018-Jul-16 02:00N 25°47' W 080°11'2 3.8
2018-Jul-16 01:30N 25°46' W 080°09'2 3.6
2018-Jul-16 00:58N 25°47' W 080°11'0 0.0
2018-Jul-16 00:30N 25°47' W 080°11'2 4.7
2018-Jul-16 00:00N 25°46' W 080°09'1 2.0
2018-Jul-15 23:30N 25°47' W 080°09'2 3.1
2018-Jul-15 22:59N 25°47' W 080°11'0 0.0
2018-Jul-15 22:26N 25°47' W 080°11'0 0.0
2018-Jul-15 21:59N 25°47' W 080°11'0 0.0
2018-Jul-15 21:29N 25°47' W 080°11'1 2.1
2018-Jul-15 20:59N 25°46' W 080°10'1 2.6
2018-Jul-15 20:30N 25°47' W 080°09'2 3.2
2018-Jul-15 20:00N 25°47' W 080°11'1 1.7
2018-Jul-15 19:30N 25°47' W 080°11'0 0.0
2018-Jul-15 19:00N 25°47' W 080°11'0 0.0
2018-Jul-15 18:30N 25°47' W 080°11'1 2.9
2018-Jul-15 18:00N 25°47' W 080°10'1 2.5
2018-Jul-15 17:30N 25°46' W 080°09'2 4.4
2018-Jul-15 16:57N 25°47' W 080°11'0 0.3
2018-Jul-15 16:30N 25°47' W 080°11'2 4.1
2018-Jul-15 15:58N 25°46' W 080°09'1 2.0
2018-Jul-15 15:30N 25°47' W 080°09'2 2.7
2018-Jul-15 14:55N 25°47' W 080°11'0 0.0
2018-Jul-15 14:19N 25°47' W 080°11'0 0.0
2018-Jul-15 13:52N 25°47' W 080°11'0 0.0
2018-Jul-15 13:22N 25°47' W 080°11'0 0.0
2018-Jul-15 12:58N 25°47' W 080°11'0 0.0
2018-Jul-15 12:28N 25°47' W 080°11'0 0.0
2018-Jul-15 11:55N 25°47' W 080°11'0 0.0
2018-Jul-15 11:29N 25°47' W 080°11'0 0.0
2018-Jul-15 10:59N 25°47' W 080°11'0 0.0
2018-Jul-15 10:26N 25°47' W 080°11'0 0.0
2018-Jul-15 09:59N 25°47' W 080°11'0 0.0
2018-Jul-15 09:29N 25°47' W 080°11'0 0.0
2018-Jul-15 08:59N 25°47' W 080°11'0 0.0
2018-Jul-15 08:29N 25°47' W 080°11'0 0.0
2018-Jul-15 07:59N 25°47' W 080°11'0 0.0
2018-Jul-15 07:29N 25°47' W 080°11'0 0.0
2018-Jul-15 06:56N 25°47' W 080°11'0 0.0
2018-Jul-15 06:26N 25°47' W 080°11'0 0.0
2018-Jul-15 05:59N 25°47' W 080°11'0 0.0
2018-Jul-15 05:23N 25°47' W 080°11'0 0.0
2018-Jul-15 04:59N 25°47' W 080°11'0 0.0
2018-Jul-15 04:30N 25°47' W 080°11'1 2.7
2018-Jul-15 04:00N 25°46' W 080°10'1 2.4
2018-Jul-15 03:26N 25°47' W 080°11'0 0.0
2018-Jul-15 03:00N 25°47' W 080°11'1 2.8
2018-Jul-15 02:29N 25°46' W 080°10'1 3.0
2018-Jul-15 01:59N 25°47' W 080°11'0 0.0
2018-Jul-15 01:30N 25°47' W 080°11'2 4.8
2018-Jul-15 01:00N 25°46' W 080°09'1 2.2
2018-Jul-15 00:30N 25°47' W 080°09'2 3.0
2018-Jul-14 23:58N 25°47' W 080°11'1 2.4
2018-Jul-14 23:30N 25°46' W 080°10'1 1.9
2018-Jul-14 23:00N 25°47' W 080°09'2 3.3
2018-Jul-14 22:27N 25°47' W 080°11'0 0.0
2018-Jul-14 22:00N 25°47' W 080°11'2 4.8
2018-Jul-14 21:29N 25°46' W 080°08'1 2.7
2018-Jul-14 20:58N 25°47' W 080°10'2 2.9
2018-Jul-14 20:25N 25°47' W 080°11'0 0.0
2018-Jul-14 20:00N 25°47' W 080°11'1 2.9
2018-Jul-14 19:30N 25°47' W 080°10'1 2.3
2018-Jul-14 19:00N 25°46' W 080°09'2 4.3
2018-Jul-14 18:28N 25°47' W 080°11'0 0.1
2018-Jul-14 18:00N 25°47' W 080°11'2 4.8
2018-Jul-14 17:29N 25°46' W 080°09'1 2.2
2018-Jul-14 16:59N 25°47' W 080°09'2 2.8
2018-Jul-14 16:23N 25°47' W 080°11'0 0.0
2018-Jul-14 15:59N 25°47' W 080°11'2 4.8
2018-Jul-14 15:29N 25°46' W 080°09'1 2.5
2018-Jul-14 15:00N 25°47' W 080°10'1 2.7
2018-Jul-14 14:28N 25°47' W 080°11'0 0.0
2018-Jul-14 13:28N 25°47' W 080°11'0 0.0
2018-Jul-14 12:58N 25°47' W 080°11'0 0.0
2018-Jul-14 12:22N 25°47' W 080°11'0 0.0
2018-Jul-14 11:58N 25°47' W 080°11'0 0.0
2018-Jul-14 11:28N 25°47' W 080°11'0 0.0
2018-Jul-14 10:58N 25°47' W 080°11'0 0.0
2018-Jul-14 10:28N 25°47' W 080°11'0 0.0
2018-Jul-14 09:58N 25°47' W 080°11'0 0.0
2018-Jul-14 09:28N 25°47' W 080°11'0 0.0
2018-Jul-14 08:58N 25°47' W 080°11'0 0.0
2018-Jul-14 08:28N 25°47' W 080°11'0 0.0
2018-Jul-14 07:58N 25°47' W 080°11'0 0.0
2018-Jul-14 07:28N 25°47' W 080°11'0 0.0
2018-Jul-14 06:58N 25°47' W 080°11'0 0.0
2018-Jul-14 06:28N 25°47' W 080°11'0 0.0
2018-Jul-14 05:58N 25°47' W 080°11'0 0.0
2018-Jul-14 05:28N 25°47' W 080°11'0 0.0
2018-Jul-14 04:58N 25°47' W 080°11'0 0.0
2018-Jul-14 04:28N 25°47' W 080°11'0 0.0
2018-Jul-14 03:58N 25°47' W 080°11'0 0.0
2018-Jul-14 03:25N 25°47' W 080°11'2 5.0
2018-Jul-14 02:59N 25°46' W 080°09'2 4.1
2018-Jul-14 02:30N 25°47' W 080°11'0 0.6
2018-Jul-14 01:52N 25°47' W 080°11'0 0.5
2018-Jul-14 01:30N 25°47' W 080°11'2 3.3
2018-Jul-14 01:00N 25°47' W 080°09'1 2.1
2018-Jul-14 00:30N 25°47' W 080°10'1 1.4
2018-Jul-13 23:57N 25°47' W 080°11'2 3.9
2018-Jul-13 23:30N 25°46' W 080°09'1 1.8
2018-Jul-13 23:00N 25°47' W 080°10'1 2.9
2018-Jul-13 22:29N 25°47' W 080°11'0 0.2
2018-Jul-13 22:00N 25°47' W 080°11'2 4.6
2018-Jul-13 21:30N 25°46' W 080°09'2 3.2
2018-Jul-13 20:59N 25°47' W 080°10'1 2.1
2018-Jul-13 20:26N 25°47' W 080°11'0 0.3
2018-Jul-13 19:59N 25°47' W 080°11'2 4.9
2018-Jul-13 19:30N 25°46' W 080°09'1 2.9
2018-Jul-13 19:00N 25°47' W 080°10'2 2.8
2018-Jul-13 18:28N 25°47' W 080°11'0 0.1
2018-Jul-13 18:00N 25°47' W 080°11'2 4.5
2018-Jul-13 17:26N 25°46' W 080°08'1 2.4
2018-Jul-13 17:00N 25°47' W 080°09'2 3.5
2018-Jul-13 16:30N 25°47' W 080°11'0 0.0
2018-Jul-13 16:00N 25°47' W 080°11'2 4.8
2018-Jul-13 15:30N 25°46' W 080°09'1 2.1
2018-Jul-13 14:58N 25°47' W 080°09'2 3.4
2018-Jul-13 14:29N 25°47' W 080°11'0 0.0
2018-Jul-13 13:29N 25°47' W 080°11'0 0.0
2018-Jul-13 12:59N 25°47' W 080°11'0 0.0
2018-Jul-13 12:29N 25°47' W 080°11'0 0.0
2018-Jul-13 11:59N 25°47' W 080°11'0 0.0
2018-Jul-13 11:26N 25°47' W 080°11'0 0.0
2018-Jul-13 10:53N 25°47' W 080°11'0 0.0
2018-Jul-13 10:29N 25°47' W 080°11'0 0.0
2018-Jul-13 09:59N 25°47' W 080°11'0 0.0
2018-Jul-13 09:29N 25°47' W 080°11'0 0.0
2018-Jul-13 08:56N 25°47' W 080°11'0 0.0
2018-Jul-13 08:29N 25°47' W 080°11'0 0.0
2018-Jul-13 07:59N 25°47' W 080°11'0 0.0
2018-Jul-13 07:29N 25°47' W 080°11'0 0.0
2018-Jul-13 06:56N 25°47' W 080°11'0 0.0
2018-Jul-13 06:29N 25°47' W 080°11'0 0.0
2018-Jul-13 05:59N 25°47' W 080°11'0 0.0
2018-Jul-13 05:29N 25°47' W 080°11'0 0.0
2018-Jul-13 04:56N 25°47' W 080°11'0 0.0
2018-Jul-13 04:29N 25°47' W 080°11'0 0.0
2018-Jul-13 03:59N 25°47' W 080°11'0 0.0
2018-Jul-13 03:29N 25°47' W 080°11'0 0.0
2018-Jul-13 02:59N 25°47' W 080°11'0 0.0
2018-Jul-13 02:29N 25°47' W 080°11'0 0.0
2018-Jul-13 01:59N 25°47' W 080°11'0 0.0
2018-Jul-13 01:29N 25°47' W 080°11'0 0.0
2018-Jul-13 00:56N 25°47' W 080°11'0 0.0
2018-Jul-13 00:28N 25°47' W 080°11'0 0.0
2018-Jul-12 23:52N 25°47' W 080°11'0 0.0
2018-Jul-12 23:28N 25°47' W 080°11'0 0.0
2018-Jul-12 22:58N 25°47' W 080°11'0 0.0
2018-Jul-12 22:25N 25°47' W 080°11'0 0.0
2018-Jul-12 21:56N 25°47' W 080°11'2 5.4
2018-Jul-12 21:30N 25°46' W 080°09'1 2.0
2018-Jul-12 21:00N 25°47' W 080°09'2 2.5
2018-Jul-12 20:21N 25°47' W 080°11'0 0.0
2018-Jul-12 19:58N 25°47' W 080°11'2 5.0
2018-Jul-12 19:30N 25°46' W 080°09'1 2.2
2018-Jul-12 19:00N 25°47' W 080°09'2 2.9
2018-Jul-12 18:27N 25°47' W 080°11'0 0.0
2018-Jul-12 18:00N 25°47' W 080°11'2 4.3
2018-Jul-12 17:29N 25°46' W 080°09'1 2.1
2018-Jul-12 17:00N 25°47' W 080°09'2 2.9
2018-Jul-12 16:28N 25°47' W 080°11'0 0.0
2018-Jul-12 16:00N 25°47' W 080°11'2 4.3
2018-Jul-12 15:30N 25°47' W 080°09'1 2.6
2018-Jul-12 15:00N 25°47' W 080°10'1 2.4
2018-Jul-12 14:29N 25°47' W 080°11'0 0.0
2018-Jul-12 13:59N 25°47' W 080°11'0 0.0
2018-Jul-12 13:29N 25°47' W 080°11'0 0.0
2018-Jul-12 12:59N 25°47' W 080°11'0 0.0
2018-Jul-12 12:26N 25°47' W 080°11'0 0.0
2018-Jul-12 11:58N 25°47' W 080°11'0 0.0
2018-Jul-12 11:25N 25°47' W 080°11'0 0.0
2018-Jul-12 10:58N 25°47' W 080°11'0 0.0
2018-Jul-12 10:28N 25°47' W 080°11'0 0.0
2018-Jul-12 09:49N 25°47' W 080°11'0 0.0
2018-Jul-12 09:25N 25°47' W 080°11'0 0.0
2018-Jul-12 08:52N 25°47' W 080°11'0 0.0
2018-Jul-12 08:28N 25°47' W 080°11'0 0.0
2018-Jul-12 07:55N 25°47' W 080°11'0 0.0
2018-Jul-12 07:25N 25°47' W 080°11'0 0.0
2018-Jul-12 06:58N 25°47' W 080°11'0 0.0
2018-Jul-12 06:25N 25°47' W 080°11'0 0.0
2018-Jul-12 05:58N 25°47' W 080°11'0 0.0
2018-Jul-12 05:28N 25°47' W 080°11'0 0.0
2018-Jul-12 04:58N 25°47' W 080°11'0 0.0
2018-Jul-12 04:25N 25°47' W 080°11'0 0.0
2018-Jul-12 03:58N 25°47' W 080°11'0 0.0
2018-Jul-12 03:28N 25°47' W 080°11'0 0.0
2018-Jul-12 02:55N 25°47' W 080°11'0 0.0
2018-Jul-12 02:25N 25°47' W 080°11'0 0.0
2018-Jul-12 01:58N 25°47' W 080°11'0 0.0
2018-Jul-12 01:28N 25°47' W 080°11'0 0.0
2018-Jul-12 00:58N 25°47' W 080°11'0 0.0
2018-Jul-12 00:25N 25°47' W 080°11'0 0.0
2018-Jul-11 23:55N 25°47' W 080°11'0 0.0
2018-Jul-11 23:22N 25°47' W 080°11'0 0.0
2018-Jul-11 22:58N 25°47' W 080°11'0 0.0
2018-Jul-11 22:28N 25°47' W 080°11'0 0.0
2018-Jul-11 22:00N 25°47' W 080°11'3 5.7
2018-Jul-11 21:29N 25°46' W 080°08'2 3.4
2018-Jul-11 21:00N 25°47' W 080°10'1 2.4
2018-Jul-11 20:23N 25°47' W 080°11'0 0.0
2018-Jul-11 19:59N 25°47' W 080°11'2 3.7
2018-Jul-11 19:29N 25°46' W 080°09'1 1.3
2018-Jul-11 19:00N 25°47' W 080°09'2 2.3
2018-Jul-11 18:19N 25°47' W 080°11'0 0.0
2018-Jul-11 18:00N 25°47' W 080°11'2 4.3
2018-Jul-11 17:30N 25°46' W 080°09'1 2.1
2018-Jul-11 16:59N 25°47' W 080°09'2 3.0
2018-Jul-11 16:28N 25°47' W 080°11'0 0.0
2018-Jul-11 16:00N 25°47' W 080°11'2 4.4
2018-Jul-11 15:30N 25°46' W 080°09'1 2.4
2018-Jul-11 15:00N 25°47' W 080°10'1 2.6
2018-Jul-11 14:26N 25°47' W 080°11'0 0.0
2018-Jul-11 13:59N 25°47' W 080°11'0 0.0
2018-Jul-11 13:26N 25°47' W 080°11'0 0.0
2018-Jul-11 12:53N 25°47' W 080°11'0 0.0
2018-Jul-11 12:26N 25°47' W 080°11'0 0.0
2018-Jul-11 12:00N 25°47' W 080°11'0 0.0
2018-Jul-11 11:27N 25°47' W 080°11'0 0.0
2018-Jul-11 10:51N 25°47' W 080°11'0 0.0
2018-Jul-11 10:30N 25°47' W 080°11'0 0.0
2018-Jul-11 09:57N 25°47' W 080°11'0 0.0
2018-Jul-11 09:30N 25°47' W 080°11'0 0.0
2018-Jul-11 08:57N 25°47' W 080°11'0 0.0
2018-Jul-11 08:24N 25°47' W 080°11'0 0.0
2018-Jul-11 08:00N 25°47' W 080°11'0 0.0
2018-Jul-11 07:30N 25°47' W 080°11'0 0.0
2018-Jul-11 06:57N 25°47' W 080°11'0 0.0
2018-Jul-11 06:30N 25°47' W 080°11'0 0.0
2018-Jul-11 05:57N 25°47' W 080°11'0 0.0
2018-Jul-11 05:30N 25°47' W 080°11'0 0.0
2018-Jul-11 05:00N 25°47' W 080°11'0 0.0
2018-Jul-11 04:30N 25°47' W 080°11'0 0.0
2018-Jul-11 03:45N 25°47' W 080°11'0 0.0
2018-Jul-11 03:30N 25°47' W 080°11'0 0.0
2018-Jul-11 03:00N 25°47' W 080°11'1 1.4
2018-Jul-11 02:30N 25°47' W 080°10'2 3.1
2018-Jul-11 02:00N 25°46' W 080°09'1 1.2
2018-Jul-11 01:30N 25°46' W 080°09'2 3.4
2018-Jul-11 00:59N 25°47' W 080°11'0 0.0
2018-Jul-11 00:23N 25°47' W 080°11'0 0.0
2018-Jul-10 23:59N 25°47' W 080°11'0 0.0
2018-Jul-10 23:23N 25°47' W 080°11'0 0.0
2018-Jul-10 22:59N 25°47' W 080°11'0 0.0
2018-Jul-10 22:30N 25°47' W 080°11'2 4.6
2018-Jul-10 21:59N 25°46' W 080°09'1 2.0
2018-Jul-10 21:30N 25°47' W 080°09'2 3.0
2018-Jul-10 20:58N 25°47' W 080°11'0 0.0
2018-Jul-10 20:25N 25°47' W 080°11'1 3.5
2018-Jul-10 20:01N 25°47' W 080°10'1 2.7
2018-Jul-10 19:29N 25°46' W 080°09'2 4.0
2018-Jul-10 18:53N 25°47' W 080°11'0 0.0
2018-Jul-10 18:29N 25°47' W 080°11'2 4.2
2018-Jul-10 17:58N 25°46' W 080°09'1 2.4
2018-Jul-10 17:30N 25°47' W 080°10'1 2.3
2018-Jul-10 16:52N 25°47' W 080°11'0 0.0
2018-Jul-10 16:27N 25°47' W 080°11'2 3.7
2018-Jul-10 16:00N 25°47' W 080°09'1 2.3
2018-Jul-10 15:30N 25°46' W 080°09'2 4.1
2018-Jul-10 14:54N 25°47' W 080°11'0 0.0
2018-Jul-10 14:30N 25°47' W 080°11'0 0.0
2018-Jul-10 13:54N 25°47' W 080°11'0 0.0
2018-Jul-10 13:30N 25°47' W 080°11'0 0.0
2018-Jul-10 12:57N 25°47' W 080°11'0 0.0
2018-Jul-10 12:30N 25°47' W 080°11'0 0.0
2018-Jul-10 12:00N 25°47' W 080°11'0 0.3
2018-Jul-10 11:26N 25°47' W 080°11'0 0.3
2018-Jul-10 10:55N 25°47' W 080°11'0 0.0
2018-Jul-10 10:28N 25°47' W 080°11'0 0.0
2018-Jul-10 09:58N 25°47' W 080°11'0 0.0
2018-Jul-10 09:22N 25°47' W 080°11'0 0.0
2018-Jul-10 08:58N 25°47' W 080°11'0 0.0
2018-Jul-10 08:25N 25°47' W 080°11'0 0.0
2018-Jul-10 07:52N 25°47' W 080°11'0 0.0
2018-Jul-10 07:25N 25°47' W 080°11'0 0.0
2018-Jul-10 06:58N 25°47' W 080°11'0 0.0
2018-Jul-10 06:13N 25°47' W 080°11'0 0.0
2018-Jul-10 05:58N 25°47' W 080°11'0 0.0
2018-Jul-10 05:28N 25°47' W 080°11'0 0.0
2018-Jul-10 04:49N 25°47' W 080°11'0 0.0
2018-Jul-10 04:22N 25°47' W 080°11'0 0.0
2018-Jul-10 03:55N 25°47' W 080°11'0 0.0
2018-Jul-10 03:19N 25°47' W 080°11'0 0.0
2018-Jul-10 02:52N 25°47' W 080°11'0 0.0
2018-Jul-10 02:25N 25°47' W 080°11'0 0.0
2018-Jul-10 01:55N 25°47' W 080°11'0 0.0
2018-Jul-10 01:16N 25°47' W 080°11'0 0.0
2018-Jul-10 00:58N 25°47' W 080°11'0 0.0
2018-Jul-10 00:22N 25°47' W 080°11'1 3.2
2018-Jul-10 00:00N 25°46' W 080°10'1 1.9
2018-Jul-09 23:29N 25°47' W 080°09'2 3.3
2018-Jul-09 22:58N 25°47' W 080°11'0 0.2
2018-Jul-09 22:30N 25°47' W 080°11'1 2.9
2018-Jul-09 22:00N 25°47' W 080°10'1 2.2
2018-Jul-09 21:30N 25°46' W 080°09'2 4.3
2018-Jul-09 20:59N 25°47' W 080°11'0 0.0
2018-Jul-09 20:30N 25°47' W 080°11'2 4.8
2018-Jul-09 20:00N 25°46' W 080°09'1 2.3
2018-Jul-09 19:30N 25°47' W 080°09'2 2.7
2018-Jul-09 18:54N 25°47' W 080°11'0 0.4
2018-Jul-09 18:29N 25°47' W 080°11'2 3.9
2018-Jul-09 18:00N 25°47' W 080°09'1 1.8
2018-Jul-09 17:30N 25°47' W 080°10'2 2.4
2018-Jul-09 16:52N 25°47' W 080°11'0 0.3
2018-Jul-09 16:29N 25°47' W 080°11'2 4.5
2018-Jul-09 16:00N 25°46' W 080°09'1 1.8
2018-Jul-09 15:29N 25°47' W 080°09'2 3.2
2018-Jul-09 14:58N 25°47' W 080°11'0 0.0
2018-Jul-09 14:28N 25°47' W 080°11'0 0.0
2018-Jul-09 13:55N 25°47' W 080°11'0 0.0
2018-Jul-09 13:28N 25°47' W 080°11'0 0.0
2018-Jul-09 12:58N 25°47' W 080°11'0 0.0
2018-Jul-09 12:22N 25°47' W 080°11'0 0.0
2018-Jul-09 11:58N 25°47' W 080°11'0 0.0
2018-Jul-09 11:25N 25°47' W 080°11'0 0.0
2018-Jul-09 10:58N 25°47' W 080°11'0 0.0
2018-Jul-09 10:22N 25°47' W 080°11'0 0.0
2018-Jul-09 09:58N 25°47' W 080°11'0 0.0
2018-Jul-09 09:25N 25°47' W 080°11'0 0.0
2018-Jul-09 08:58N 25°47' W 080°11'0 0.0
2018-Jul-09 08:28N 25°47' W 080°11'0 0.0
2018-Jul-09 07:58N 25°47' W 080°11'0 0.0
2018-Jul-09 07:22N 25°47' W 080°11'0 0.0
2018-Jul-09 06:58N 25°47' W 080°11'0 0.0
2018-Jul-09 06:19N 25°47' W 080°11'0 0.0
2018-Jul-09 05:55N 25°47' W 080°11'0 0.0
2018-Jul-09 05:22N 25°47' W 080°11'0 0.0
2018-Jul-09 04:52N 25°47' W 080°11'0 0.0
2018-Jul-09 04:28N 25°47' W 080°11'0 0.0
2018-Jul-09 03:58N 25°47' W 080°11'2 4.7
2018-Jul-09 03:30N 25°46' W 080°09'2 4.3
2018-Jul-09 03:00N 25°47' W 080°11'0 0.2
2018-Jul-09 02:30N 25°47' W 080°11'1 2.2
2018-Jul-09 02:00N 25°46' W 080°10'0 0.5
2018-Jul-09 01:30N 25°46' W 080°10'1 1.7
2018-Jul-09 01:00N 25°46' W 080°09'2 3.5
2018-Jul-09 00:30N 25°47' W 080°11'0 0.4
2018-Jul-09 00:00N 25°47' W 080°11'0 0.0
2018-Jul-08 23:30N 25°47' W 080°11'0 0.0
2018-Jul-08 23:00N 25°47' W 080°11'0 0.0
2018-Jul-08 22:30N 25°47' W 080°11'2 4.4
2018-Jul-08 21:58N 25°46' W 080°09'1 1.7
2018-Jul-08 21:30N 25°47' W 080°09'2 2.8
2018-Jul-08 20:55N 25°47' W 080°11'0 0.3
2018-Jul-08 20:29N 25°47' W 080°11'1 3.0
2018-Jul-08 20:00N 25°47' W 080°10'1 2.2
2018-Jul-08 19:30N 25°46' W 080°09'2 4.3
2018-Jul-08 18:58N 25°47' W 080°11'0 0.0
2018-Jul-08 18:30N 25°47' W 080°11'1 2.9
2018-Jul-08 18:00N 25°47' W 080°10'1 1.8
2018-Jul-08 17:30N 25°46' W 080°10'2 3.0
2018-Jul-08 16:58N 25°47' W 080°11'0 0.0
2018-Jul-08 16:30N 25°47' W 080°11'2 3.2
2018-Jul-08 16:00N 25°47' W 080°09'1 1.8
2018-Jul-08 15:30N 25°46' W 080°09'2 3.6
2018-Jul-08 14:56N 25°47' W 080°11'0 0.0
2018-Jul-08 14:22N 25°47' W 080°11'0 0.0
2018-Jul-08 13:58N 25°47' W 080°11'0 0.0
2018-Jul-08 13:28N 25°47' W 080°11'0 0.0
2018-Jul-08 12:58N 25°47' W 080°11'0 0.0
2018-Jul-08 12:28N 25°47' W 080°11'0 0.0
2018-Jul-08 11:58N 25°47' W 080°11'0 0.0
2018-Jul-08 11:28N 25°47' W 080°11'0 0.0
2018-Jul-08 10:58N 25°47' W 080°11'0 0.0
2018-Jul-08 10:28N 25°47' W 080°11'0 0.0
2018-Jul-08 09:58N 25°47' W 080°11'0 0.0
2018-Jul-08 09:25N 25°47' W 080°11'0 0.0
2018-Jul-08 08:52N 25°47' W 080°11'0 0.0
2018-Jul-08 08:28N 25°47' W 080°11'0 0.0
2018-Jul-08 07:52N 25°47' W 080°11'0 0.0
2018-Jul-08 07:25N 25°47' W 080°11'0 0.0
2018-Jul-08 06:55N 25°47' W 080°11'0 0.0
2018-Jul-08 06:28N 25°47' W 080°11'0 0.0
2018-Jul-08 05:58N 25°47' W 080°11'0 0.0
2018-Jul-08 05:28N 25°47' W 080°11'0 0.0
2018-Jul-08 04:55N 25°47' W 080°11'0 0.0
2018-Jul-08 04:22N 25°47' W 080°11'0 0.0
2018-Jul-08 03:58N 25°47' W 080°11'0 0.1
2018-Jul-08 03:30N 25°47' W 080°11'1 2.4
2018-Jul-08 03:00N 25°46' W 080°10'1 2.4
2018-Jul-08 02:30N 25°47' W 080°11'0 0.0
2018-Jul-08 01:57N 25°47' W 080°11'1 1.2
2018-Jul-08 01:30N 25°47' W 080°11'2 3.1
2018-Jul-08 01:00N 25°47' W 080°09'2 3.1
2018-Jul-08 00:30N 25°46' W 080°11'0 0.9
2018-Jul-07 23:59N 25°47' W 080°11'1 3.1
2018-Jul-07 23:30N 25°47' W 080°10'1 2.7
2018-Jul-07 23:00N 25°46' W 080°09'2 3.9
2018-Jul-07 22:30N 25°47' W 080°11'0 0.0
2018-Jul-07 22:00N 25°47' W 080°11'3 5.0
2018-Jul-07 21:30N 25°46' W 080°08'1 2.6
2018-Jul-07 20:59N 25°47' W 080°09'2 3.1
2018-Jul-07 20:28N 25°47' W 080°11'0 0.0
2018-Jul-07 19:57N 25°47' W 080°11'2 3.4
2018-Jul-07 19:30N 25°47' W 080°09'1 2.0
2018-Jul-07 19:00N 25°46' W 080°09'2 4.0
2018-Jul-07 18:29N 25°47' W 080°11'0 0.3
2018-Jul-07 18:00N 25°47' W 080°11'2 4.4
2018-Jul-07 17:30N 25°46' W 080°09'1 2.0
2018-Jul-07 17:00N 25°47' W 080°09'2 2.6
2018-Jul-07 16:22N 25°47' W 080°11'0 0.4
2018-Jul-07 16:00N 25°47' W 080°11'2 4.1
2018-Jul-07 15:30N 25°47' W 080°09'1 1.8
2018-Jul-07 15:00N 25°47' W 080°10'1 2.9
2018-Jul-07 14:29N 25°47' W 080°11'0 0.0
2018-Jul-07 13:53N 25°47' W 080°11'0 0.0
2018-Jul-07 13:25N 25°47' W 080°11'0 0.0
2018-Jul-07 12:58N 25°47' W 080°11'0 0.0
2018-Jul-07 12:22N 25°47' W 080°11'0 0.0
2018-Jul-07 11:58N 25°47' W 080°11'0 0.0
2018-Jul-07 11:28N 25°47' W 080°11'0 0.0
2018-Jul-07 10:58N 25°47' W 080°11'0 0.0
2018-Jul-07 10:25N 25°47' W 080°11'0 0.0
2018-Jul-07 09:58N 25°47' W 080°11'0 0.0
2018-Jul-07 09:28N 25°47' W 080°11'0 0.0
2018-Jul-07 08:55N 25°47' W 080°11'0 0.0
2018-Jul-07 08:27N 25°47' W 080°11'0 0.0
2018-Jul-07 07:59N 25°47' W 080°11'0 0.0
2018-Jul-07 07:29N 25°47' W 080°11'0 0.0
2018-Jul-07 06:59N 25°47' W 080°11'0 0.0
2018-Jul-07 06:23N 25°47' W 080°11'0 0.0
2018-Jul-07 05:59N 25°47' W 080°11'0 0.0
2018-Jul-07 05:29N 25°47' W 080°11'0 0.0
2018-Jul-07 04:59N 25°47' W 080°11'0 0.0
2018-Jul-07 04:29N 25°47' W 080°11'0 0.0
2018-Jul-07 03:59N 25°47' W 080°11'0 0.0
2018-Jul-07 03:27N 25°47' W 080°11'2 5.0
2018-Jul-07 03:00N 25°46' W 080°09'2 4.4
2018-Jul-07 02:30N 25°47' W 080°11'1 0.8
2018-Jul-07 01:52N 25°47' W 080°11'0 0.4
2018-Jul-07 01:30N 25°47' W 080°11'2 4.5
2018-Jul-07 01:00N 25°46' W 080°09'1 1.8
2018-Jul-07 00:30N 25°47' W 080°09'2 3.4
2018-Jul-06 23:59N 25°47' W 080°11'0 0.0
2018-Jul-06 23:30N 25°47' W 080°11'2 4.9
2018-Jul-06 23:00N 25°46' W 080°09'1 2.2
2018-Jul-06 22:29N 25°47' W 080°09'2 3.3
2018-Jul-06 21:59N 25°47' W 080°11'0 0.2
2018-Jul-06 21:30N 25°47' W 080°11'1 2.7
2018-Jul-06 20:58N 25°47' W 080°09'1 2.4
2018-Jul-06 20:29N 25°46' W 080°09'2 4.6
2018-Jul-06 19:57N 25°47' W 080°11'0 0.0
2018-Jul-06 19:30N 25°47' W 080°11'2 4.5
2018-Jul-06 18:59N 25°46' W 080°09'1 2.4
2018-Jul-06 18:30N 25°47' W 080°10'2 2.9
2018-Jul-06 17:59N 25°47' W 080°11'0 0.0
2018-Jul-06 17:29N 25°47' W 080°11'2 4.0
2018-Jul-06 16:59N 25°46' W 080°09'1 1.8
2018-Jul-06 16:30N 25°47' W 080°09'2 3.0
2018-Jul-06 15:58N 25°47' W 080°11'0 0.0
2018-Jul-06 15:25N 25°47' W 080°11'0 0.0
2018-Jul-06 14:58N 25°47' W 080°11'0 0.0
2018-Jul-06 14:28N 25°47' W 080°11'0 0.0
2018-Jul-06 13:58N 25°47' W 080°11'0 0.0
2018-Jul-06 13:28N 25°47' W 080°11'0 0.0
2018-Jul-06 12:58N 25°47' W 080°11'0 0.0
2018-Jul-06 12:25N 25°47' W 080°11'0 0.0
2018-Jul-06 11:58N 25°47' W 080°11'0 0.0
2018-Jul-06 11:25N 25°47' W 080°11'0 0.0
2018-Jul-06 10:52N 25°47' W 080°11'0 0.0
2018-Jul-06 10:22N 25°47' W 080°11'0 0.0
2018-Jul-06 09:55N 25°47' W 080°11'0 0.0
2018-Jul-06 09:25N 25°47' W 080°11'0 0.0
2018-Jul-06 08:58N 25°47' W 080°11'0 0.0
2018-Jul-06 08:19N 25°47' W 080°11'0 0.0
2018-Jul-06 07:49N 25°47' W 080°11'0 0.0
2018-Jul-06 07:28N 25°47' W 080°11'0 0.0
2018-Jul-06 06:58N 25°47' W 080°11'0 0.0
2018-Jul-06 06:25N 25°47' W 080°11'0 0.0
2018-Jul-06 06:00N 25°47' W 080°11'0 0.0
2018-Jul-06 05:28N 25°47' W 080°11'0 0.0
2018-Jul-06 04:58N 25°47' W 080°11'  
Track history (hours):
 
Tides and Currents Weather Stations Pressure Air Temp Water Temp Dewpoint Dewpoint Depression Visibility Wind Speed Wind Dir Waves Ship Positions

Island Queen

Owner: Island Queen Sightseeing Tours Inc., Miami, FL. More information available from US FCC via Universal Licensing System and Coast Guard Vessel Documentation Center.

Last reported at 2018-Jul-16 04:25 UTC. Time now 2018-Jul-16 04:37 UTC.
Position N 25°47' W 080°11'.

Type: Passenger vessel. MMSI: 367387350.

Date/timePositionNaut miles runAvg speedWind from/ knotsBaromVisibWave heightAir tempDewpointWater temp
2018-Jul-16 04:25N 25°47' W 080°11'0 0.0
2018-Jul-16 03:55N 25°47' W 080°11'0 0.0
2018-Jul-16 03:19N 25°47' W 080°11'0 0.0
2018-Jul-16 02:55N 25°47' W 080°11'0 0.0
2018-Jul-16 02:19N 25°47' W 080°11'0 0.1
2018-Jul-16 02:00N 25°47' W 080°11'2 3.8
2018-Jul-16 01:30N 25°46' W 080°09'2 3.6
2018-Jul-16 00:58N 25°47' W 080°11'0 0.0
2018-Jul-16 00:30N 25°47' W 080°11'2 4.7
2018-Jul-16 00:00N 25°46' W 080°09'1 2.0
2018-Jul-15 23:30N 25°47' W 080°09'2 3.1
2018-Jul-15 22:59N 25°47' W 080°11'0 0.0
2018-Jul-15 22:26N 25°47' W 080°11'0 0.0
2018-Jul-15 21:59N 25°47' W 080°11'0 0.0
2018-Jul-15 21:29N 25°47' W 080°11'1 2.1
2018-Jul-15 20:59N 25°46' W 080°10'1 2.6
2018-Jul-15 20:30N 25°47' W 080°09'2 3.2
2018-Jul-15 20:00N 25°47' W 080°11'1 1.7
2018-Jul-15 19:30N 25°47' W 080°11'0 0.0
2018-Jul-15 19:00N 25°47' W 080°11'0 0.0
2018-Jul-15 18:30N 25°47' W 080°11'1 2.9
2018-Jul-15 18:00N 25°47' W 080°10'1 2.5
2018-Jul-15 17:30N 25°46' W 080°09'2 4.4
2018-Jul-15 16:57N 25°47' W 080°11'0 0.3
2018-Jul-15 16:30N 25°47' W 080°11'2 4.1
2018-Jul-15 15:58N 25°46' W 080°09'1 2.0
2018-Jul-15 15:30N 25°47' W 080°09'2 2.7
2018-Jul-15 14:55N 25°47' W 080°11'0 0.0
2018-Jul-15 14:19N 25°47' W 080°11'0 0.0
2018-Jul-15 13:52N 25°47' W 080°11'0 0.0
2018-Jul-15 13:22N 25°47' W 080°11'0 0.0
2018-Jul-15 12:58N 25°47' W 080°11'0 0.0
2018-Jul-15 12:28N 25°47' W 080°11'0 0.0
2018-Jul-15 11:55N 25°47' W 080°11'0 0.0
2018-Jul-15 11:29N 25°47' W 080°11'0 0.0
2018-Jul-15 10:59N 25°47' W 080°11'0 0.0
2018-Jul-15 10:26N 25°47' W 080°11'0 0.0
2018-Jul-15 09:59N 25°47' W 080°11'0 0.0
2018-Jul-15 09:29N 25°47' W 080°11'0 0.0
2018-Jul-15 08:59N 25°47' W 080°11'0 0.0
2018-Jul-15 08:29N 25°47' W 080°11'0 0.0
2018-Jul-15 07:59N 25°47' W 080°11'0 0.0
2018-Jul-15 07:29N 25°47' W 080°11'0 0.0
2018-Jul-15 06:56N 25°47' W 080°11'0 0.0
2018-Jul-15 06:26N 25°47' W 080°11'0 0.0
2018-Jul-15 05:59N 25°47' W 080°11'0 0.0
2018-Jul-15 05:23N 25°47' W 080°11'0 0.0
2018-Jul-15 04:59N 25°47' W 080°11'0 0.0
2018-Jul-15 04:30N 25°47' W 080°11'1 2.7
2018-Jul-15 04:00N 25°46' W 080°10'1 2.4
2018-Jul-15 03:26N 25°47' W 080°11'0 0.0
2018-Jul-15 03:00N 25°47' W 080°11'1 2.8
2018-Jul-15 02:29N 25°46' W 080°10'1 3.0
2018-Jul-15 01:59N 25°47' W 080°11'0 0.0
2018-Jul-15 01:30N 25°47' W 080°11'2 4.8
2018-Jul-15 01:00N 25°46' W 080°09'1 2.2
2018-Jul-15 00:30N 25°47' W 080°09'2 3.0
2018-Jul-14 23:58N 25°47' W 080°11'1 2.4
2018-Jul-14 23:30N 25°46' W 080°10'1 1.9
2018-Jul-14 23:00N 25°47' W 080°09'2 3.3
2018-Jul-14 22:27N 25°47' W 080°11'0 0.0
2018-Jul-14 22:00N 25°47' W 080°11'2 4.8
2018-Jul-14 21:29N 25°46' W 080°08'1 2.7
2018-Jul-14 20:58N 25°47' W 080°10'2 2.9
2018-Jul-14 20:25N 25°47' W 080°11'0 0.0
2018-Jul-14 20:00N 25°47' W 080°11'1 2.9
2018-Jul-14 19:30N 25°47' W 080°10'1 2.3
2018-Jul-14 19:00N 25°46' W 080°09'2 4.3
2018-Jul-14 18:28N 25°47' W 080°11'0 0.1
2018-Jul-14 18:00N 25°47' W 080°11'2 4.8
2018-Jul-14 17:29N 25°46' W 080°09'1 2.2
2018-Jul-14 16:59N 25°47' W 080°09'2 2.8
2018-Jul-14 16:23N 25°47' W 080°11'0 0.0
2018-Jul-14 15:59N 25°47' W 080°11'2 4.8
2018-Jul-14 15:29N 25°46' W 080°09'1 2.5
2018-Jul-14 15:00N 25°47' W 080°10'1 2.7
2018-Jul-14 14:28N 25°47' W 080°11'0 0.0
2018-Jul-14 13:28N 25°47' W 080°11'0 0.0
2018-Jul-14 12:58N 25°47' W 080°11'0 0.0
2018-Jul-14 12:22N 25°47' W 080°11'0 0.0
2018-Jul-14 11:58N 25°47' W 080°11'0 0.0
2018-Jul-14 11:28N 25°47' W 080°11'0 0.0
2018-Jul-14 10:58N 25°47' W 080°11'0 0.0
2018-Jul-14 10:28N 25°47' W 080°11'0 0.0
2018-Jul-14 09:58N 25°47' W 080°11'0 0.0
2018-Jul-14 09:28N 25°47' W 080°11'0 0.0
2018-Jul-14 08:58N 25°47' W 080°11'0 0.0
2018-Jul-14 08:28N 25°47' W 080°11'0 0.0
2018-Jul-14 07:58N 25°47' W 080°11'0 0.0
2018-Jul-14 07:28N 25°47' W 080°11'0 0.0
2018-Jul-14 06:58N 25°47' W 080°11'0 0.0
2018-Jul-14 06:28N 25°47' W 080°11'0 0.0
2018-Jul-14 05:58N 25°47' W 080°11'0 0.0
2018-Jul-14 05:28N 25°47' W 080°11'0 0.0
2018-Jul-14 04:58N 25°47' W 080°11'0 0.0
2018-Jul-14 04:28N 25°47' W 080°11'0 0.0
2018-Jul-14 03:58N 25°47' W 080°11'0 0.0
2018-Jul-14 03:25N 25°47' W 080°11'2 5.0
2018-Jul-14 02:59N 25°46' W 080°09'2 4.1
2018-Jul-14 02:30N 25°47' W 080°11'0 0.6
2018-Jul-14 01:52N 25°47' W 080°11'0 0.5
2018-Jul-14 01:30N 25°47' W 080°11'2 3.3
2018-Jul-14 01:00N 25°47' W 080°09'1 2.1
2018-Jul-14 00:30N 25°47' W 080°10'1 1.4
2018-Jul-13 23:57N 25°47' W 080°11'2 3.9
2018-Jul-13 23:30N 25°46' W 080°09'1 1.8
2018-Jul-13 23:00N 25°47' W 080°10'1 2.9
2018-Jul-13 22:29N 25°47' W 080°11'0 0.2
2018-Jul-13 22:00N 25°47' W 080°11'2 4.6
2018-Jul-13 21:30N 25°46' W 080°09'2 3.2
2018-Jul-13 20:59N 25°47' W 080°10'1 2.1
2018-Jul-13 20:26N 25°47' W 080°11'0 0.3
2018-Jul-13 19:59N 25°47' W 080°11'2 4.9
2018-Jul-13 19:30N 25°46' W 080°09'1 2.9
2018-Jul-13 19:00N 25°47' W 080°10'2 2.8
2018-Jul-13 18:28N 25°47' W 080°11'0 0.1
2018-Jul-13 18:00N 25°47' W 080°11'2 4.5
2018-Jul-13 17:26N 25°46' W 080°08'1 2.4
2018-Jul-13 17:00N 25°47' W 080°09'2 3.5
2018-Jul-13 16:30N 25°47' W 080°11'0 0.0
2018-Jul-13 16:00N 25°47' W 080°11'2 4.8
2018-Jul-13 15:30N 25°46' W 080°09'1 2.1
2018-Jul-13 14:58N 25°47' W 080°09'2 3.4
2018-Jul-13 14:29N 25°47' W 080°11'0 0.0
2018-Jul-13 13:29N 25°47' W 080°11'0 0.0
2018-Jul-13 12:59N 25°47' W 080°11'0 0.0
2018-Jul-13 12:29N 25°47' W 080°11'0 0.0
2018-Jul-13 11:59N 25°47' W 080°11'0 0.0
2018-Jul-13 11:26N 25°47' W 080°11'0 0.0
2018-Jul-13 10:53N 25°47' W 080°11'0 0.0
2018-Jul-13 10:29N 25°47' W 080°11'0 0.0
2018-Jul-13 09:59N 25°47' W 080°11'0 0.0
2018-Jul-13 09:29N 25°47' W 080°11'0 0.0
2018-Jul-13 08:56N 25°47' W 080°11'0 0.0
2018-Jul-13 08:29N 25°47' W 080°11'0 0.0
2018-Jul-13 07:59N 25°47' W 080°11'0 0.0
2018-Jul-13 07:29N 25°47' W 080°11'0 0.0
2018-Jul-13 06:56N 25°47' W 080°11'0 0.0
2018-Jul-13 06:29N 25°47' W 080°11'0 0.0
2018-Jul-13 05:59N 25°47' W 080°11'0 0.0
2018-Jul-13 05:29N 25°47' W 080°11'0 0.0
2018-Jul-13 04:56N 25°47' W 080°11'0 0.0
2018-Jul-13 04:29N 25°47' W 080°11'0 0.0
2018-Jul-13 03:59N 25°47' W 080°11'0 0.0
2018-Jul-13 03:29N 25°47' W 080°11'0 0.0
2018-Jul-13 02:59N 25°47' W 080°11'0 0.0
2018-Jul-13 02:29N 25°47' W 080°11'0 0.0
2018-Jul-13 01:59N 25°47' W 080°11'0 0.0
2018-Jul-13 01:29N 25°47' W 080°11'0 0.0
2018-Jul-13 00:56N 25°47' W 080°11'0 0.0
2018-Jul-13 00:28N 25°47' W 080°11'0 0.0
2018-Jul-12 23:52N 25°47' W 080°11'0 0.0
2018-Jul-12 23:28N 25°47' W 080°11'0 0.0
2018-Jul-12 22:58N 25°47' W 080°11'0 0.0
2018-Jul-12 22:25N 25°47' W 080°11'0 0.0
2018-Jul-12 21:56N 25°47' W 080°11'2 5.4
2018-Jul-12 21:30N 25°46' W 080°09'1 2.0
2018-Jul-12 21:00N 25°47' W 080°09'2 2.5
2018-Jul-12 20:21N 25°47' W 080°11'0 0.0
2018-Jul-12 19:58N 25°47' W 080°11'2 5.0
2018-Jul-12 19:30N 25°46' W 080°09'1 2.2
2018-Jul-12 19:00N 25°47' W 080°09'2 2.9
2018-Jul-12 18:27N 25°47' W 080°11'0 0.0
2018-Jul-12 18:00N 25°47' W 080°11'2 4.3
2018-Jul-12 17:29N 25°46' W 080°09'1 2.1
2018-Jul-12 17:00N 25°47' W 080°09'2 2.9
2018-Jul-12 16:28N 25°47' W 080°11'0 0.0
2018-Jul-12 16:00N 25°47' W 080°11'2 4.3
2018-Jul-12 15:30N 25°47' W 080°09'1 2.6
2018-Jul-12 15:00N 25°47' W 080°10'1 2.4
2018-Jul-12 14:29N 25°47' W 080°11'0 0.0
2018-Jul-12 13:59N 25°47' W 080°11'0 0.0
2018-Jul-12 13:29N 25°47' W 080°11'0 0.0
2018-Jul-12 12:59N 25°47' W 080°11'0 0.0
2018-Jul-12 12:26N 25°47' W 080°11'0 0.0
2018-Jul-12 11:58N 25°47' W 080°11'0 0.0
2018-Jul-12 11:25N 25°47' W 080°11'0 0.0
2018-Jul-12 10:58N 25°47' W 080°11'0 0.0
2018-Jul-12 10:28N 25°47' W 080°11'0 0.0
2018-Jul-12 09:49N 25°47' W 080°11'0 0.0
2018-Jul-12 09:25N 25°47' W 080°11'0 0.0
2018-Jul-12 08:52N 25°47' W 080°11'0 0.0
2018-Jul-12 08:28N 25°47' W 080°11'0 0.0
2018-Jul-12 07:55N 25°47' W 080°11'0 0.0
2018-Jul-12 07:25N 25°47' W 080°11'0 0.0
2018-Jul-12 06:58N 25°47' W 080°11'0 0.0
2018-Jul-12 06:25N 25°47' W 080°11'0 0.0
2018-Jul-12 05:58N 25°47' W 080°11'0 0.0
2018-Jul-12 05:28N 25°47' W 080°11'0 0.0
2018-Jul-12 04:58N 25°47' W 080°11'0 0.0
2018-Jul-12 04:25N 25°47' W 080°11'0 0.0
2018-Jul-12 03:58N 25°47' W 080°11'0 0.0
2018-Jul-12 03:28N 25°47' W 080°11'0 0.0
2018-Jul-12 02:55N 25°47' W 080°11'0 0.0
2018-Jul-12 02:25N 25°47' W 080°11'0 0.0
2018-Jul-12 01:58N 25°47' W 080°11'0 0.0
2018-Jul-12 01:28N 25°47' W 080°11'0 0.0
2018-Jul-12 00:58N 25°47' W 080°11'0 0.0
2018-Jul-12 00:25N 25°47' W 080°11'0 0.0
2018-Jul-11 23:55N 25°47' W 080°11'0 0.0
2018-Jul-11 23:22N 25°47' W 080°11'0 0.0
2018-Jul-11 22:58N 25°47' W 080°11'0 0.0
2018-Jul-11 22:28N 25°47' W 080°11'0 0.0
2018-Jul-11 22:00N 25°47' W 080°11'3 5.7
2018-Jul-11 21:29N 25°46' W 080°08'2 3.4
2018-Jul-11 21:00N 25°47' W 080°10'1 2.4
2018-Jul-11 20:23N 25°47' W 080°11'0 0.0
2018-Jul-11 19:59N 25°47' W 080°11'2 3.7
2018-Jul-11 19:29N 25°46' W 080°09'1 1.3
2018-Jul-11 19:00N 25°47' W 080°09'2 2.3
2018-Jul-11 18:19N 25°47' W 080°11'0 0.0
2018-Jul-11 18:00N 25°47' W 080°11'2 4.3
2018-Jul-11 17:30N 25°46' W 080°09'1 2.1
2018-Jul-11 16:59N 25°47' W 080°09'2 3.0
2018-Jul-11 16:28N 25°47' W 080°11'0 0.0
2018-Jul-11 16:00N 25°47' W 080°11'2 4.4
2018-Jul-11 15:30N 25°46' W 080°09'1 2.4
2018-Jul-11 15:00N 25°47' W 080°10'1 2.6
2018-Jul-11 14:26N 25°47' W 080°11'0 0.0
2018-Jul-11 13:59N 25°47' W 080°11'0 0.0
2018-Jul-11 13:26N 25°47' W 080°11'0 0.0
2018-Jul-11 12:53N 25°47' W 080°11'0 0.0
2018-Jul-11 12:26N 25°47' W 080°11'0 0.0
2018-Jul-11 12:00N 25°47' W 080°11'0 0.0
2018-Jul-11 11:27N 25°47' W 080°11'0 0.0
2018-Jul-11 10:51N 25°47' W 080°11'0 0.0
2018-Jul-11 10:30N 25°47' W 080°11'0 0.0
2018-Jul-11 09:57N 25°47' W 080°11'0 0.0
2018-Jul-11 09:30N 25°47' W 080°11'0 0.0
2018-Jul-11 08:57N 25°47' W 080°11'0 0.0
2018-Jul-11 08:24N 25°47' W 080°11'0 0.0
2018-Jul-11 08:00N 25°47' W 080°11'0 0.0
2018-Jul-11 07:30N 25°47' W 080°11'0 0.0
2018-Jul-11 06:57N 25°47' W 080°11'0 0.0
2018-Jul-11 06:30N 25°47' W 080°11'0 0.0
2018-Jul-11 05:57N 25°47' W 080°11'0 0.0
2018-Jul-11 05:30N 25°47' W 080°11'0 0.0
2018-Jul-11 05:00N 25°47' W 080°11'0 0.0
2018-Jul-11 04:30N 25°47' W 080°11'0 0.0
2018-Jul-11 03:45N 25°47' W 080°11'0 0.0
2018-Jul-11 03:30N 25°47' W 080°11'0 0.0
2018-Jul-11 03:00N 25°47' W 080°11'1 1.4
2018-Jul-11 02:30N 25°47' W 080°10'2 3.1
2018-Jul-11 02:00N 25°46' W 080°09'1 1.2
2018-Jul-11 01:30N 25°46' W 080°09'2 3.4
2018-Jul-11 00:59N 25°47' W 080°11'0 0.0
2018-Jul-11 00:23N 25°47' W 080°11'0 0.0
2018-Jul-10 23:59N 25°47' W 080°11'0 0.0
2018-Jul-10 23:23N 25°47' W 080°11'0 0.0
2018-Jul-10 22:59N 25°47' W 080°11'0 0.0
2018-Jul-10 22:30N 25°47' W 080°11'2 4.6
2018-Jul-10 21:59N 25°46' W 080°09'1 2.0
2018-Jul-10 21:30N 25°47' W 080°09'2 3.0
2018-Jul-10 20:58N 25°47' W 080°11'0 0.0
2018-Jul-10 20:25N 25°47' W 080°11'1 3.5
2018-Jul-10 20:01N 25°47' W 080°10'1 2.7
2018-Jul-10 19:29N 25°46' W 080°09'2 4.0
2018-Jul-10 18:53N 25°47' W 080°11'0 0.0
2018-Jul-10 18:29N 25°47' W 080°11'2 4.2
2018-Jul-10 17:58N 25°46' W 080°09'1 2.4
2018-Jul-10 17:30N 25°47' W 080°10'1 2.3
2018-Jul-10 16:52N 25°47' W 080°11'0 0.0
2018-Jul-10 16:27N 25°47' W 080°11'2 3.7
2018-Jul-10 16:00N 25°47' W 080°09'1 2.3
2018-Jul-10 15:30N 25°46' W 080°09'2 4.1
2018-Jul-10 14:54N 25°47' W 080°11'0 0.0
2018-Jul-10 14:30N 25°47' W 080°11'0 0.0
2018-Jul-10 13:54N 25°47' W 080°11'0 0.0
2018-Jul-10 13:30N 25°47' W 080°11'0 0.0
2018-Jul-10 12:57N 25°47' W 080°11'0 0.0
2018-Jul-10 12:30N 25°47' W 080°11'0 0.0
2018-Jul-10 12:00N 25°47' W 080°11'0 0.3
2018-Jul-10 11:26N 25°47' W 080°11'0 0.3
2018-Jul-10 10:55N 25°47' W 080°11'0 0.0
2018-Jul-10 10:28N 25°47' W 080°11'0 0.0
2018-Jul-10 09:58N 25°47' W 080°11'0 0.0
2018-Jul-10 09:22N 25°47' W 080°11'0 0.0
2018-Jul-10 08:58N 25°47' W 080°11'0 0.0
2018-Jul-10 08:25N 25°47' W 080°11'0 0.0
2018-Jul-10 07:52N 25°47' W 080°11'0 0.0
2018-Jul-10 07:25N 25°47' W 080°11'0 0.0
2018-Jul-10 06:58N 25°47' W 080°11'0 0.0
2018-Jul-10 06:13N 25°47' W 080°11'0 0.0
2018-Jul-10 05:58N 25°47' W 080°11'0 0.0
2018-Jul-10 05:28N 25°47' W 080°11'0 0.0
2018-Jul-10 04:49N 25°47' W 080°11'0 0.0
2018-Jul-10 04:22N 25°47' W 080°11'0 0.0
2018-Jul-10 03:55N 25°47' W 080°11'0 0.0
2018-Jul-10 03:19N 25°47' W 080°11'0 0.0
2018-Jul-10 02:52N 25°47' W 080°11'0 0.0
2018-Jul-10 02:25N 25°47' W 080°11'0 0.0
2018-Jul-10 01:55N 25°47' W 080°11'0 0.0
2018-Jul-10 01:16N 25°47' W 080°11'0 0.0
2018-Jul-10 00:58N 25°47' W 080°11'0 0.0
2018-Jul-10 00:22N 25°47' W 080°11'1 3.2
2018-Jul-10 00:00N 25°46' W 080°10'1 1.9
2018-Jul-09 23:29N 25°47' W 080°09'2 3.3
2018-Jul-09 22:58N 25°47' W 080°11'0 0.2
2018-Jul-09 22:30N 25°47' W 080°11'1 2.9
2018-Jul-09 22:00N 25°47' W 080°10'1 2.2
2018-Jul-09 21:30N 25°46' W 080°09'2 4.3
2018-Jul-09 20:59N 25°47' W 080°11'0 0.0
2018-Jul-09 20:30N 25°47' W 080°11'2 4.8
2018-Jul-09 20:00N 25°46' W 080°09'1 2.3
2018-Jul-09 19:30N 25°47' W 080°09'2 2.7
2018-Jul-09 18:54N 25°47' W 080°11'0 0.4
2018-Jul-09 18:29N 25°47' W 080°11'2 3.9
2018-Jul-09 18:00N 25°47' W 080°09'1 1.8
2018-Jul-09 17:30N 25°47' W 080°10'2 2.4
2018-Jul-09 16:52N 25°47' W 080°11'0 0.3
2018-Jul-09 16:29N 25°47' W 080°11'2 4.5
2018-Jul-09 16:00N 25°46' W 080°09'1 1.8
2018-Jul-09 15:29N 25°47' W 080°09'2 3.2
2018-Jul-09 14:58N 25°47' W 080°11'0 0.0
2018-Jul-09 14:28N 25°47' W 080°11'0 0.0
2018-Jul-09 13:55N 25°47' W 080°11'0 0.0
2018-Jul-09 13:28N 25°47' W 080°11'0 0.0
2018-Jul-09 12:58N 25°47' W 080°11'0 0.0
2018-Jul-09 12:22N 25°47' W 080°11'0 0.0
2018-Jul-09 11:58N 25°47' W 080°11'0 0.0
2018-Jul-09 11:25N 25°47' W 080°11'0 0.0
2018-Jul-09 10:58N 25°47' W 080°11'0 0.0
2018-Jul-09 10:22N 25°47' W 080°11'0 0.0
2018-Jul-09 09:58N 25°47' W 080°11'0 0.0
2018-Jul-09 09:25N 25°47' W 080°11'0 0.0
2018-Jul-09 08:58N 25°47' W 080°11'0 0.0
2018-Jul-09 08:28N 25°47' W 080°11'0 0.0
2018-Jul-09 07:58N 25°47' W 080°11'0 0.0
2018-Jul-09 07:22N 25°47' W 080°11'0 0.0
2018-Jul-09 06:58N 25°47' W 080°11'0 0.0
2018-Jul-09 06:19N 25°47' W 080°11'0 0.0
2018-Jul-09 05:55N 25°47' W 080°11'0 0.0
2018-Jul-09 05:22N 25°47' W 080°11'0 0.0
2018-Jul-09 04:52N 25°47' W 080°11'0 0.0
2018-Jul-09 04:28N 25°47' W 080°11'0 0.0
2018-Jul-09 03:58N 25°47' W 080°11'2 4.7
2018-Jul-09 03:30N 25°46' W 080°09'2 4.3
2018-Jul-09 03:00N 25°47' W 080°11'0 0.2
2018-Jul-09 02:30N 25°47' W 080°11'1 2.2
2018-Jul-09 02:00N 25°46' W 080°10'0 0.5
2018-Jul-09 01:30N 25°46' W 080°10'1 1.7
2018-Jul-09 01:00N 25°46' W 080°09'2 3.5
2018-Jul-09 00:30N 25°47' W 080°11'0 0.4
2018-Jul-09 00:00N 25°47' W 080°11'0 0.0
2018-Jul-08 23:30N 25°47' W 080°11'0 0.0
2018-Jul-08 23:00N 25°47' W 080°11'0 0.0
2018-Jul-08 22:30N 25°47' W 080°11'2 4.4
2018-Jul-08 21:58N 25°46' W 080°09'1 1.7
2018-Jul-08 21:30N 25°47' W 080°09'2 2.8
2018-Jul-08 20:55N 25°47' W 080°11'0 0.3
2018-Jul-08 20:29N 25°47' W 080°11'1 3.0
2018-Jul-08 20:00N 25°47' W 080°10'1 2.2
2018-Jul-08 19:30N 25°46' W 080°09'2 4.3
2018-Jul-08 18:58N 25°47' W 080°11'0 0.0
2018-Jul-08 18:30N 25°47' W 080°11'1 2.9
2018-Jul-08 18:00N 25°47' W 080°10'1 1.8
2018-Jul-08 17:30N 25°46' W 080°10'2 3.0
2018-Jul-08 16:58N 25°47' W 080°11'0 0.0
2018-Jul-08 16:30N 25°47' W 080°11'2 3.2
2018-Jul-08 16:00N 25°47' W 080°09'1 1.8
2018-Jul-08 15:30N 25°46' W 080°09'2 3.6
2018-Jul-08 14:56N 25°47' W 080°11'0 0.0
2018-Jul-08 14:22N 25°47' W 080°11'0 0.0
2018-Jul-08 13:58N 25°47' W 080°11'0 0.0
2018-Jul-08 13:28N 25°47' W 080°11'0 0.0
2018-Jul-08 12:58N 25°47' W 080°11'0 0.0
2018-Jul-08 12:28N 25°47' W 080°11'0 0.0
2018-Jul-08 11:58N 25°47' W 080°11'0 0.0
2018-Jul-08 11:28N 25°47' W 080°11'0 0.0
2018-Jul-08 10:58N 25°47' W 080°11'0 0.0
2018-Jul-08 10:28N 25°47' W 080°11'0 0.0
2018-Jul-08 09:58N 25°47' W 080°11'0 0.0
2018-Jul-08 09:25N 25°47' W 080°11'0 0.0
2018-Jul-08 08:52N 25°47' W 080°11'0 0.0
2018-Jul-08 08:28N 25°47' W 080°11'0 0.0
2018-Jul-08 07:52N 25°47' W 080°11'0 0.0
2018-Jul-08 07:25N 25°47' W 080°11'0 0.0
2018-Jul-08 06:55N 25°47' W 080°11'0 0.0
2018-Jul-08 06:28N 25°47' W 080°11'0 0.0
2018-Jul-08 05:58N 25°47' W 080°11'0 0.0
2018-Jul-08 05:28N 25°47' W 080°11'0 0.0
2018-Jul-08 04:55N 25°47' W 080°11'0 0.0
2018-Jul-08 04:22N 25°47' W 080°11'0 0.0
2018-Jul-08 03:58N 25°47' W 080°11'0 0.1
2018-Jul-08 03:30N 25°47' W 080°11'1 2.4
2018-Jul-08 03:00N 25°46' W 080°10'1 2.4
2018-Jul-08 02:30N 25°47' W 080°11'0 0.0
2018-Jul-08 01:57N 25°47' W 080°11'1 1.2
2018-Jul-08 01:30N 25°47' W 080°11'2 3.1
2018-Jul-08 01:00N 25°47' W 080°09'2 3.1
2018-Jul-08 00:30N 25°46' W 080°11'0 0.9
2018-Jul-07 23:59N 25°47' W 080°11'1 3.1
2018-Jul-07 23:30N 25°47' W 080°10'1 2.7
2018-Jul-07 23:00N 25°46' W 080°09'2 3.9
2018-Jul-07 22:30N 25°47' W 080°11'0 0.0
2018-Jul-07 22:00N 25°47' W 080°11'3 5.0
2018-Jul-07 21:30N 25°46' W 080°08'1 2.6
2018-Jul-07 20:59N 25°47' W 080°09'2 3.1
2018-Jul-07 20:28N 25°47' W 080°11'0 0.0
2018-Jul-07 19:57N 25°47' W 080°11'2 3.4
2018-Jul-07 19:30N 25°47' W 080°09'1 2.0
2018-Jul-07 19:00N 25°46' W 080°09'2 4.0
2018-Jul-07 18:29N 25°47' W 080°11'0 0.3
2018-Jul-07 18:00N 25°47' W 080°11'2 4.4
2018-Jul-07 17:30N 25°46' W 080°09'1 2.0
2018-Jul-07 17:00N 25°47' W 080°09'2 2.6
2018-Jul-07 16:22N 25°47' W 080°11'0 0.4
2018-Jul-07 16:00N 25°47' W 080°11'2 4.1
2018-Jul-07 15:30N 25°47' W 080°09'1 1.8
2018-Jul-07 15:00N 25°47' W 080°10'1 2.9
2018-Jul-07 14:29N 25°47' W 080°11'0 0.0
2018-Jul-07 13:53N 25°47' W 080°11'0 0.0
2018-Jul-07 13:25N 25°47' W 080°11'0 0.0
2018-Jul-07 12:58N 25°47' W 080°11'0 0.0
2018-Jul-07 12:22N 25°47' W 080°11'0 0.0
2018-Jul-07 11:58N 25°47' W 080°11'0 0.0
2018-Jul-07 11:28N 25°47' W 080°11'0 0.0
2018-Jul-07 10:58N 25°47' W 080°11'0 0.0
2018-Jul-07 10:25N 25°47' W 080°11'0 0.0
2018-Jul-07 09:58N 25°47' W 080°11'0 0.0
2018-Jul-07 09:28N 25°47' W 080°11'0 0.0
2018-Jul-07 08:55N 25°47' W 080°11'0 0.0
2018-Jul-07 08:27N 25°47' W 080°11'0 0.0
2018-Jul-07 07:59N 25°47' W 080°11'0 0.0
2018-Jul-07 07:29N 25°47' W 080°11'0 0.0
2018-Jul-07 06:59N 25°47' W 080°11'0 0.0
2018-Jul-07 06:23N 25°47' W 080°11'0 0.0
2018-Jul-07 05:59N 25°47' W 080°11'0 0.0
2018-Jul-07 05:29N 25°47' W 080°11'0 0.0
2018-Jul-07 04:59N 25°47' W 080°11'0 0.0
2018-Jul-07 04:29N 25°47' W 080°11'0 0.0
2018-Jul-07 03:59N 25°47' W 080°11'0 0.0
2018-Jul-07 03:27N 25°47' W 080°11'2 5.0
2018-Jul-07 03:00N 25°46' W 080°09'2 4.4
2018-Jul-07 02:30N 25°47' W 080°11'1 0.8
2018-Jul-07 01:52N 25°47' W 080°11'0 0.4
2018-Jul-07 01:30N 25°47' W 080°11'2 4.5
2018-Jul-07 01:00N 25°46' W 080°09'1 1.8
2018-Jul-07 00:30N 25°47' W 080°09'2 3.4
2018-Jul-06 23:59N 25°47' W 080°11'0 0.0
2018-Jul-06 23:30N 25°47' W 080°11'2 4.9
2018-Jul-06 23:00N 25°46' W 080°09'1 2.2
2018-Jul-06 22:29N 25°47' W 080°09'2 3.3
2018-Jul-06 21:59N 25°47' W 080°11'0 0.2
2018-Jul-06 21:30N 25°47' W 080°11'1 2.7
2018-Jul-06 20:58N 25°47' W 080°09'1 2.4
2018-Jul-06 20:29N 25°46' W 080°09'2 4.6
2018-Jul-06 19:57N 25°47' W 080°11'0 0.0
2018-Jul-06 19:30N 25°47' W 080°11'2 4.5
2018-Jul-06 18:59N 25°46' W 080°09'1 2.4
2018-Jul-06 18:30N 25°47' W 080°10'2 2.9
2018-Jul-06 17:59N 25°47' W 080°11'0 0.0
2018-Jul-06 17:29N 25°47' W 080°11'2 4.0
2018-Jul-06 16:59N 25°46' W 080°09'1 1.8
2018-Jul-06 16:30N 25°47' W 080°09'2 3.0
2018-Jul-06 15:58N 25°47' W 080°11'0 0.0
2018-Jul-06 15:25N 25°47' W 080°11'0 0.0
2018-Jul-06 14:58N 25°47' W 080°11'0 0.0
2018-Jul-06 14:28N 25°47' W 080°11'0 0.0
2018-Jul-06 13:58N 25°47' W 080°11'0 0.0
2018-Jul-06 13:28N 25°47' W 080°11'0 0.0
2018-Jul-06 12:58N 25°47' W 080°11'0 0.0
2018-Jul-06 12:25N 25°47' W 080°11'0 0.0
2018-Jul-06 11:58N 25°47' W 080°11'0 0.0
2018-Jul-06 11:25N 25°47' W 080°11'0 0.0
2018-Jul-06 10:52N 25°47' W 080°11'0 0.0
2018-Jul-06 10:22N 25°47' W 080°11'0 0.0
2018-Jul-06 09:55N 25°47' W 080°11'0 0.0
2018-Jul-06 09:25N 25°47' W 080°11'0 0.0
2018-Jul-06 08:58N 25°47' W 080°11'0 0.0
2018-Jul-06 08:19N 25°47' W 080°11'0 0.0
2018-Jul-06 07:49N 25°47' W 080°11'0 0.0
2018-Jul-06 07:28N 25°47' W 080°11'0 0.0
2018-Jul-06 06:58N 25°47' W 080°11'0 0.0
2018-Jul-06 06:25N 25°47' W 080°11'0 0.0
2018-Jul-06 06:00N 25°47' W 080°11'0 0.0
2018-Jul-06 05:28N 25°47' W 080°11'0 0.0
2018-Jul-06 04:58N 25°47' W 080°11'  

Dump ship's entire track history